Accueil
METAR-TAF:

METAR-TAF

Aéroports :

Aéroport international de Shanghai-Pudong

Shanghai-Pudong, Chine

latitude: 31-07N, longitude: 121-46E, altitude: 4 m

Observation

Le bulletin a été fait il y a 27 minutes, à 12:30 UTC
Vent 14 kt de nord/nord-est
Température 11°C
Humidité 76%
Pression 1027 hPa
Visibilité 10 km ou plus
Nuages fragmentés à une hauteur de 2000 ft

METAR: ZSPD 041230Z 03007MPS 9999 BKN020 11/07 Q1027 NOSIG

Heure: 20:57 (12:57 UTC)

Prévision

Le bulletin a été fait il y a 3 heures et 50 minutes, à 09:07 UTC
Prévision valable du 04 à 12 UTC au 05 à 12 UTC
Vent 8 kt de nord-est
Visibilité: 6000 m
Nuages épars à une hauteur de 2000 ft

TAF: ZSPD 040907Z 0412/0512 04004MPS 6000 SCT020 TX19/0506Z TN08/0421Z

Observations et prévisions météorologiques de plus de 4000 aéroports (messages METAR et TAF).

Les stations disponibles sont représentées par des disques jaunes et rouges sur la carte.

Passer la souris dessus pour voir le nom de la station.

Cliquer dessus pour voir les observations et prévisions météorologiques.

Pour changer de carte: cliquez sur les boutons verts avec une croix noire pour zoomer, sur le bouton vert avec un tiret pour effectuer un zoom arrière, ou sur les flèches vertes pour les cartes adjacentes.


METAR-TAF: